Christina G — ZCXO5 — position and weather

sailwx.info

Track history (hours):
 
Tides and Currents Weather Stations Pressure Air Temp Water Temp Dewpoint Dewpoint Depression Visibility Wind Speed Wind Dir Waves Ship Positions

Christina G

Last reported at 2017-Jun-28 13:30 UTC. Time now 2017-Jun-28 16:04 UTC.
Position N 39°32' E 002°36'.

Date/timePositionNaut miles runAvg speedWind from/ knotsBaromVisibWave heightAir tempDewpointWater temp
2017-Jun-28 13:30N 39°32' E 002°36'3 5.6
2017-Jun-28 13:00N 39°31' E 002°33'0 0.1
2017-Jun-28 12:26N 39°31' E 002°33'0 0.1
2017-Jun-28 11:59N 39°31' E 002°33'0 0.0
2017-Jun-28 11:30N 39°31' E 002°33'0 0.0
2017-Jun-28 11:00N 39°31' E 002°33'0 0.0
2017-Jun-28 10:30N 39°31' E 002°33'0 0.0
2017-Jun-28 10:00N 39°31' E 002°33'0 0.1
2017-Jun-28 09:30N 39°31' E 002°33'0 0.0
2017-Jun-28 09:00N 39°31' E 002°33'4 7.8
2017-Jun-28 08:30N 39°32' E 002°38'2 4.1
2017-Jun-28 08:00N 39°34' E 002°39'0 0.0
2017-Jun-28 07:31N 39°34' E 002°39'0 0.0
2017-Jun-28 07:01N 39°34' E 002°39'0 0.0
2017-Jun-28 06:30N 39°34' E 002°39'0 0.0
2017-Jun-28 06:00N 39°34' E 002°39'0 0.0
2017-Jun-28 05:31N 39°34' E 002°39'0 0.0
2017-Jun-28 05:01N 39°34' E 002°39'0 0.0
2017-Jun-28 04:30N 39°34' E 002°39'0 0.0
2017-Jun-28 04:01N 39°34' E 002°39'0 0.0
2017-Jun-28 03:30N 39°34' E 002°39'0 0.0
2017-Jun-28 03:00N 39°34' E 002°39'0 0.0
2017-Jun-28 02:31N 39°34' E 002°39'0 0.0
2017-Jun-28 02:01N 39°34' E 002°39'0 0.0
2017-Jun-28 01:30N 39°34' E 002°39'0 0.0
2017-Jun-28 01:00N 39°34' E 002°39'0 0.0
2017-Jun-28 00:31N 39°34' E 002°39'0 0.0
2017-Jun-28 00:01N 39°34' E 002°39'0 0.0
2017-Jun-27 23:30N 39°34' E 002°39'0 0.0
2017-Jun-27 23:00N 39°34' E 002°39'0 0.0
2017-Jun-27 22:30N 39°34' E 002°39'0 0.0
2017-Jun-27 22:00N 39°34' E 002°39'0 0.0
2017-Jun-27 21:30N 39°34' E 002°39'0 0.0
2017-Jun-27 21:01N 39°34' E 002°39'0 0.0
2017-Jun-27 20:30N 39°34' E 002°39'0 0.0
2017-Jun-27 20:00N 39°34' E 002°39'0 0.0
2017-Jun-27 19:30N 39°34' E 002°39'0 0.0
2017-Jun-27 19:01N 39°34' E 002°39'0 0.0
2017-Jun-27 18:30N 39°34' E 002°39'0 0.0
2017-Jun-27 18:00N 39°34' E 002°39'0 0.0
2017-Jun-27 17:30N 39°34' E 002°39'0 0.0
2017-Jun-27 17:01N 39°34' E 002°39'0 0.1
2017-Jun-27 16:30N 39°34' E 002°39'3 5.6
2017-Jun-27 16:00N 39°32' E 002°37'611.5
2017-Jun-27 15:30N 39°27' E 002°32'510.4
2017-Jun-27 15:00N 39°30' E 002°25'12 8.1
2017-Jun-27 13:30N 39°41' E 002°29'611.2
2017-Jun-27 13:00N 39°45' E 002°35'611.5
2017-Jun-27 12:30N 39°48' E 002°41'38 1.8
2017-Jun-26 15:43N 39°58' E 003°29'310.4
2017-Jun-26 15:26N 39°58' E 003°33'1310.3
2017-Jun-26 14:09N 39°58' E 003°50'0 0.0
2017-Jun-26 13:22N 39°58' E 003°50'0 0.0
2017-Jun-26 11:51N 39°58' E 003°50'0 0.1
2017-Jun-26 11:26N 39°58' E 003°50'  
2017-Jun-23 12:55N 39°40' E 003°52'910.5
2017-Jun-23 12:01N 39°36' E 003°41'510.8
2017-Jun-23 11:32N 39°34' E 003°35'010.6
2017-Jun-23 11:31N 39°33' E 003°35'510.7
2017-Jun-23 11:00N 39°31' E 003°28'510.5
2017-Jun-23 10:30N 39°29' E 003°22'510.2
2017-Jun-23 09:59N 39°25' E 003°17'510.6
2017-Jun-23 09:30N 39°21' E 003°14'510.2
2017-Jun-23 09:00N 39°18' E 003°08'510.0
2017-Jun-23 08:30N 39°16' E 003°03'510.6
2017-Jun-23 08:00N 39°18' E 002°57'510.5
2017-Jun-23 07:30N 39°20' E 002°51'510.3
2017-Jun-23 07:00N 39°23' E 002°45'510.4
2017-Jun-23 06:30N 39°27' E 002°42'510.3
2017-Jun-23 06:00N 39°32' E 002°39'2 4.0
2017-Jun-23 05:30N 39°34' E 002°38'0 0.0
2017-Jun-23 05:00N 39°34' E 002°38'0 0.0
2017-Jun-23 04:30N 39°34' E 002°38'0 0.0
2017-Jun-23 04:00N 39°34' E 002°38'0 0.0
2017-Jun-23 03:30N 39°34' E 002°38'0 0.0
2017-Jun-23 03:00N 39°34' E 002°38'0 0.0
2017-Jun-23 02:24N 39°34' E 002°38'0 0.0
2017-Jun-23 02:00N 39°34' E 002°38'0 0.0
2017-Jun-23 01:30N 39°34' E 002°38'0 0.0
2017-Jun-23 01:00N 39°34' E 002°38'0 0.0
2017-Jun-23 00:30N 39°34' E 002°38'0 0.1
2017-Jun-23 00:00N 39°34' E 002°38'0 0.1
2017-Jun-22 23:30N 39°34' E 002°38'0 0.0
2017-Jun-22 23:00N 39°34' E 002°38'0 0.0
2017-Jun-22 22:30N 39°34' E 002°38'0 0.0
2017-Jun-22 21:54N 39°34' E 002°38'0 0.0
2017-Jun-22 21:30N 39°34' E 002°38'0 0.0
2017-Jun-22 20:57N 39°34' E 002°38'0 0.0
2017-Jun-22 20:27N 39°34' E 002°38'0 0.0
2017-Jun-22 20:00N 39°34' E 002°38'0 0.0
2017-Jun-22 19:30N 39°34' E 002°38'0 0.0
2017-Jun-22 19:00N 39°34' E 002°38'0 0.0
2017-Jun-22 18:30N 39°34' E 002°38'0 0.0
2017-Jun-22 18:00N 39°34' E 002°38'0 0.0
2017-Jun-22 17:30N 39°34' E 002°38'0 0.0
2017-Jun-22 17:00N 39°34' E 002°38'0 0.0
2017-Jun-22 16:30N 39°34' E 002°38'0 0.0
2017-Jun-22 16:00N 39°34' E 002°38'0 0.0
2017-Jun-22 15:30N 39°34' E 002°38'0 0.0
2017-Jun-22 15:00N 39°34' E 002°38'0 0.0
2017-Jun-22 14:00N 39°34' E 002°38'0 0.0
2017-Jun-22 13:30N 39°34' E 002°38'0 0.0
2017-Jun-22 13:00N 39°34' E 002°38'0 0.0
2017-Jun-22 12:30N 39°34' E 002°38'0 0.0
2017-Jun-22 12:00N 39°34' E 002°38'0 0.0
2017-Jun-22 11:30N 39°34' E 002°38'0 0.0
2017-Jun-22 11:00N 39°34' E 002°38'0 0.0
2017-Jun-22 10:30N 39°34' E 002°38'0 0.0
2017-Jun-22 10:00N 39°34' E 002°38'0 0.0
2017-Jun-22 09:30N 39°34' E 002°38'0 0.0
2017-Jun-22 09:00N 39°34' E 002°38'0 0.0
2017-Jun-22 08:30N 39°34' E 002°38'0 0.0
2017-Jun-22 08:00N 39°34' E 002°38'0 0.0
2017-Jun-22 07:27N 39°34' E 002°38'0 0.0
2017-Jun-22 07:00N 39°34' E 002°38'0 0.0
2017-Jun-22 06:30N 39°34' E 002°38'0 0.0
2017-Jun-22 06:00N 39°34' E 002°38'0 0.0
2017-Jun-22 05:30N 39°34' E 002°38'0 0.0
2017-Jun-22 05:00N 39°34' E 002°38'0 0.0
2017-Jun-22 04:30N 39°34' E 002°38'0 0.0
2017-Jun-22 04:00N 39°34' E 002°38'0 0.0
2017-Jun-22 03:30N 39°34' E 002°38'0 0.0
2017-Jun-22 03:00N 39°34' E 002°38'0 0.0
2017-Jun-22 02:30N 39°34' E 002°38'0 0.0
2017-Jun-22 01:57N 39°34' E 002°38'0 0.0
2017-Jun-22 01:30N 39°34' E 002°38'0 0.0
2017-Jun-22 00:57N 39°34' E 002°38'0 0.0
2017-Jun-22 00:30N 39°34' E 002°38'0 0.0
2017-Jun-22 00:00N 39°34' E 002°38'0 0.0
2017-Jun-21 23:30N 39°34' E 002°38'0 0.0
2017-Jun-21 23:00N 39°34' E 002°38'0 0.0
2017-Jun-21 22:30N 39°34' E 002°38'0 0.0
2017-Jun-21 22:00N 39°34' E 002°38'0 0.0
2017-Jun-21 21:30N 39°34' E 002°38'0 0.0
2017-Jun-21 21:00N 39°34' E 002°38'0 0.0
2017-Jun-21 20:30N 39°34' E 002°38'0 0.0
2017-Jun-21 20:00N 39°34' E 002°38'0 0.0
2017-Jun-21 19:30N 39°34' E 002°38'0 0.0
2017-Jun-21 19:00N 39°34' E 002°38'0 0.0
2017-Jun-21 18:30N 39°34' E 002°38'0 0.0
2017-Jun-21 18:00N 39°34' E 002°38'0 0.0
2017-Jun-21 17:30N 39°34' E 002°38'0 0.0
2017-Jun-21 17:00N 39°34' E 002°38'0 0.0
2017-Jun-21 16:30N 39°34' E 002°38'0 0.0
2017-Jun-21 16:00N 39°34' E 002°38'0 0.0
2017-Jun-21 15:30N 39°34' E 002°38'0 0.0
2017-Jun-21 15:00N 39°34' E 002°38'2 4.1
2017-Jun-21 14:30N 39°32' E 002°37'2 2.0
2017-Jun-21 13:30N 39°34' E 002°38'0 0.0
2017-Jun-21 13:00N 39°34' E 002°38'0 0.0
2017-Jun-21 12:30N 39°34' E 002°38'0 0.0
2017-Jun-21 11:57N 39°34' E 002°38'0 0.0
2017-Jun-21 11:30N 39°34' E 002°38'0 0.0
2017-Jun-21 11:00N 39°34' E 002°38'0 0.0
2017-Jun-21 10:30N 39°34' E 002°38'0 0.0
2017-Jun-21 10:00N 39°34' E 002°38'0 0.0
2017-Jun-21 09:30N 39°34' E 002°38'0 0.0
2017-Jun-21 09:00N 39°34' E 002°38'0 0.0
2017-Jun-21 08:27N 39°34' E 002°38'0 0.0
2017-Jun-21 08:00N 39°34' E 002°38'0 0.0
2017-Jun-21 07:30N 39°34' E 002°38'0 0.0
2017-Jun-21 07:00N 39°34' E 002°38'0 0.0
2017-Jun-21 06:30N 39°34' E 002°38'0 0.0
2017-Jun-21 06:00N 39°34' E 002°38'0 0.0
2017-Jun-21 05:24N 39°34' E 002°38'0 0.0
2017-Jun-21 05:00N 39°34' E 002°38'0 0.0
2017-Jun-21 04:27N 39°34' E 002°38'0 0.0
2017-Jun-21 04:00N 39°34' E 002°38'0 0.0
2017-Jun-21 03:30N 39°34' E 002°38'0 0.0
2017-Jun-21 03:00N 39°34' E 002°38'0 0.0
2017-Jun-21 02:27N 39°34' E 002°38'0 0.0
2017-Jun-21 02:00N 39°34' E 002°38'0 0.0
2017-Jun-21 01:30N 39°34' E 002°38'0 0.0
2017-Jun-21 01:00N 39°34' E 002°38'0 0.0
2017-Jun-21 00:24N 39°34' E 002°38'0 0.0
2017-Jun-21 00:00N 39°34' E 002°38'0 0.0
2017-Jun-20 23:30N 39°34' E 002°38'0 0.0
2017-Jun-20 23:00N 39°34' E 002°38'0 0.0
2017-Jun-20 22:30N 39°34' E 002°38'0 0.0
2017-Jun-20 22:00N 39°34' E 002°38'0 0.0
2017-Jun-20 21:30N 39°34' E 002°38'0 0.0
2017-Jun-20 21:00N 39°34' E 002°38'0 0.0
2017-Jun-20 20:30N 39°34' E 002°38'0 0.0
2017-Jun-20 20:00N 39°34' E 002°38'0 0.0
2017-Jun-20 19:30N 39°34' E 002°38'0 0.0
2017-Jun-20 19:00N 39°34' E 002°38'0 0.0
2017-Jun-20 18:30N 39°34' E 002°38'0 0.0
2017-Jun-20 18:00N 39°34' E 002°38'0 0.0
2017-Jun-20 17:30N 39°34' E 002°38'0 0.0
2017-Jun-20 17:00N 39°34' E 002°38'0 0.0
2017-Jun-20 16:30N 39°34' E 002°38'0 0.0
2017-Jun-20 16:00N 39°34' E 002°38'0 0.0
2017-Jun-20 15:30N 39°34' E 002°38'0 0.0
2017-Jun-20 15:00N 39°34' E 002°38'0 0.0
2017-Jun-20 14:30N 39°34' E 002°38'0 0.0
2017-Jun-20 13:30N 39°34' E 002°38'0 0.0
2017-Jun-20 13:00N 39°34' E 002°38'0 0.0
2017-Jun-20 12:30N 39°34' E 002°38'0 0.0
2017-Jun-20 12:00N 39°34' E 002°38'0 0.0
2017-Jun-20 11:30N 39°34' E 002°38'0 0.0
2017-Jun-20 11:00N 39°34' E 002°38'0 0.0
2017-Jun-20 10:30N 39°34' E 002°38'0 0.0
2017-Jun-20 10:00N 39°34' E 002°38'0 0.0
2017-Jun-20 09:30N 39°34' E 002°38'0 0.0
2017-Jun-20 09:00N 39°34' E 002°38'0 0.0
2017-Jun-20 08:30N 39°34' E 002°38'0 0.0
2017-Jun-20 08:00N 39°34' E 002°38'0 0.0
2017-Jun-20 07:30N 39°34' E 002°38'0 0.0
2017-Jun-20 07:00N 39°34' E 002°38'0 0.0
2017-Jun-20 06:30N 39°34' E 002°38'0 0.0
2017-Jun-20 06:00N 39°34' E 002°38'0 0.0
2017-Jun-20 05:30N 39°34' E 002°38'0 0.0
2017-Jun-20 05:00N 39°34' E 002°38'0 0.0
2017-Jun-20 04:30N 39°34' E 002°38'0 0.0
2017-Jun-20 04:00N 39°34' E 002°38'0 0.0
2017-Jun-20 03:30N 39°34' E 002°38'0 0.0
2017-Jun-20 02:57N 39°34' E 002°38'0 0.0
2017-Jun-20 02:30N 39°34' E 002°38'0 0.0
2017-Jun-20 02:00N 39°34' E 002°38'0 0.0
2017-Jun-20 01:30N 39°34' E 002°38'0 0.0
2017-Jun-20 01:00N 39°34' E 002°38'0 0.0
2017-Jun-20 00:30N 39°34' E 002°38'0 0.0
2017-Jun-20 00:00N 39°34' E 002°38'0 0.0
2017-Jun-19 23:30N 39°34' E 002°38'0 0.0
2017-Jun-19 23:00N 39°34' E 002°38'0 0.0
2017-Jun-19 22:30N 39°34' E 002°38'0 0.0
2017-Jun-19 22:00N 39°34' E 002°38'0 0.0
2017-Jun-19 21:30N 39°34' E 002°38'0 0.0
2017-Jun-19 21:00N 39°34' E 002°38'0 0.0
2017-Jun-19 20:30N 39°34' E 002°38'0 0.0
2017-Jun-19 20:00N 39°34' E 002°38'0 0.0
2017-Jun-19 19:30N 39°34' E 002°38'0 0.0
2017-Jun-19 19:00N 39°34' E 002°38'0 0.0
2017-Jun-19 18:30N 39°34' E 002°38'0 0.0
2017-Jun-19 18:00N 39°34' E 002°38'0 0.0
2017-Jun-19 17:30N 39°34' E 002°38'0 0.0
2017-Jun-19 17:00N 39°34' E 002°38'0 0.0
2017-Jun-19 16:30N 39°34' E 002°38'0 0.0
2017-Jun-19 16:00N 39°34' E 002°38'0 0.0
2017-Jun-19 15:27N 39°34' E 002°38'0 0.0
2017-Jun-19 15:00N 39°34' E 002°38'0 0.0
2017-Jun-19 14:30N 39°34' E 002°38'0 0.0
2017-Jun-19 13:30N 39°34' E 002°38'0 0.0
2017-Jun-19 13:00N 39°34' E 002°38'0 0.0
2017-Jun-19 12:30N 39°34' E 002°38'0 0.0
2017-Jun-19 12:00N 39°34' E 002°38'0 0.0
2017-Jun-19 11:30N 39°34' E 002°38'0 0.0
2017-Jun-19 11:00N 39°34' E 002°38'0 0.0
2017-Jun-19 10:27N 39°34' E 002°38'0 0.0
2017-Jun-19 10:00N 39°34' E 002°38'0 0.0
2017-Jun-19 09:30N 39°34' E 002°38'0 0.0
2017-Jun-19 09:00N 39°34' E 002°38'0 0.0
2017-Jun-19 08:30N 39°34' E 002°38'1 3.0
2017-Jun-19 08:00N 39°33' E 002°38'510.2
2017-Jun-19 07:30N 39°29' E 002°33'1 2.5
2017-Jun-19 06:58N 39°28' E 002°32'0 0.0
2017-Jun-19 06:25N 39°28' E 002°32'0 0.0
2017-Jun-19 05:58N 39°28' E 002°32'0 0.0
2017-Jun-19 05:28N 39°28' E 002°32'0 0.0
2017-Jun-19 04:58N 39°28' E 002°32'0 0.0
2017-Jun-19 04:29N 39°28' E 002°32'0 0.0
2017-Jun-19 03:58N 39°28' E 002°32'0 0.0
2017-Jun-19 03:28N 39°28' E 002°32'0 0.0
2017-Jun-19 02:58N 39°28' E 002°32'0 0.0
2017-Jun-19 02:28N 39°28' E 002°32'0 0.0
2017-Jun-19 01:58N 39°28' E 002°32'0 0.0
2017-Jun-19 01:25N 39°28' E 002°32'0 0.0
2017-Jun-19 00:58N 39°28' E 002°32'0 0.0
2017-Jun-19 00:28N 39°28' E 002°32'0 0.0
2017-Jun-18 23:55N 39°28' E 002°32'0 0.0
2017-Jun-18 23:25N 39°28' E 002°32'0 0.0
2017-Jun-18 22:58N 39°28' E 002°32'0 0.0
2017-Jun-18 22:28N 39°28' E 002°32'0 0.0
2017-Jun-18 21:58N 39°28' E 002°32'0 0.0
2017-Jun-18 21:28N 39°28' E 002°32'0 0.0
2017-Jun-18 20:55N 39°28' E 002°32'0 0.0
2017-Jun-18 20:25N 39°28' E 002°32'0 0.0
2017-Jun-18 19:58N 39°28' E 002°32'0 0.0
2017-Jun-18 19:25N 39°28' E 002°32'0 0.0
2017-Jun-18 18:58N 39°28' E 002°32'0 0.0
2017-Jun-18 18:28N 39°28' E 002°32'0 0.0
2017-Jun-18 17:58N 39°28' E 002°32'0 0.0
2017-Jun-18 17:28N 39°28' E 002°32'0 0.0
2017-Jun-18 16:58N 39°28' E 002°32'0 0.0
2017-Jun-18 16:28N 39°28' E 002°32'0 0.0
2017-Jun-18 15:58N 39°28' E 002°32'0 0.0
2017-Jun-18 15:30N 39°28' E 002°32'1 1.6
2017-Jun-18 15:00N 39°28' E 002°32'10 9.9
2017-Jun-18 14:00N 39°20' E 002°23'  
Track history (hours):
 
Tides and Currents Weather Stations Pressure Air Temp Water Temp Dewpoint Dewpoint Depression Visibility Wind Speed Wind Dir Waves Ship Positions

Christina G

Last reported at 2017-Jun-28 13:30 UTC. Time now 2017-Jun-28 16:04 UTC.
Position N 39°32' E 002°36'.

Date/timePositionNaut miles runAvg speedWind from/ knotsBaromVisibWave heightAir tempDewpointWater temp
2017-Jun-28 13:30N 39°32' E 002°36'3 5.6
2017-Jun-28 13:00N 39°31' E 002°33'0 0.1
2017-Jun-28 12:26N 39°31' E 002°33'0 0.1
2017-Jun-28 11:59N 39°31' E 002°33'0 0.0
2017-Jun-28 11:30N 39°31' E 002°33'0 0.0
2017-Jun-28 11:00N 39°31' E 002°33'0 0.0
2017-Jun-28 10:30N 39°31' E 002°33'0 0.0
2017-Jun-28 10:00N 39°31' E 002°33'0 0.1
2017-Jun-28 09:30N 39°31' E 002°33'0 0.0
2017-Jun-28 09:00N 39°31' E 002°33'4 7.8
2017-Jun-28 08:30N 39°32' E 002°38'2 4.1
2017-Jun-28 08:00N 39°34' E 002°39'0 0.0
2017-Jun-28 07:31N 39°34' E 002°39'0 0.0
2017-Jun-28 07:01N 39°34' E 002°39'0 0.0
2017-Jun-28 06:30N 39°34' E 002°39'0 0.0
2017-Jun-28 06:00N 39°34' E 002°39'0 0.0
2017-Jun-28 05:31N 39°34' E 002°39'0 0.0
2017-Jun-28 05:01N 39°34' E 002°39'0 0.0
2017-Jun-28 04:30N 39°34' E 002°39'0 0.0
2017-Jun-28 04:01N 39°34' E 002°39'0 0.0
2017-Jun-28 03:30N 39°34' E 002°39'0 0.0
2017-Jun-28 03:00N 39°34' E 002°39'0 0.0
2017-Jun-28 02:31N 39°34' E 002°39'0 0.0
2017-Jun-28 02:01N 39°34' E 002°39'0 0.0
2017-Jun-28 01:30N 39°34' E 002°39'0 0.0
2017-Jun-28 01:00N 39°34' E 002°39'0 0.0
2017-Jun-28 00:31N 39°34' E 002°39'0 0.0
2017-Jun-28 00:01N 39°34' E 002°39'0 0.0
2017-Jun-27 23:30N 39°34' E 002°39'0 0.0
2017-Jun-27 23:00N 39°34' E 002°39'0 0.0
2017-Jun-27 22:30N 39°34' E 002°39'0 0.0
2017-Jun-27 22:00N 39°34' E 002°39'0 0.0
2017-Jun-27 21:30N 39°34' E 002°39'0 0.0
2017-Jun-27 21:01N 39°34' E 002°39'0 0.0
2017-Jun-27 20:30N 39°34' E 002°39'0 0.0
2017-Jun-27 20:00N 39°34' E 002°39'0 0.0
2017-Jun-27 19:30N 39°34' E 002°39'0 0.0
2017-Jun-27 19:01N 39°34' E 002°39'0 0.0
2017-Jun-27 18:30N 39°34' E 002°39'0 0.0
2017-Jun-27 18:00N 39°34' E 002°39'0 0.0
2017-Jun-27 17:30N 39°34' E 002°39'0 0.0
2017-Jun-27 17:01N 39°34' E 002°39'0 0.1
2017-Jun-27 16:30N 39°34' E 002°39'3 5.6
2017-Jun-27 16:00N 39°32' E 002°37'611.5
2017-Jun-27 15:30N 39°27' E 002°32'510.4
2017-Jun-27 15:00N 39°30' E 002°25'12 8.1
2017-Jun-27 13:30N 39°41' E 002°29'611.2
2017-Jun-27 13:00N 39°45' E 002°35'611.5
2017-Jun-27 12:30N 39°48' E 002°41'38 1.8
2017-Jun-26 15:43N 39°58' E 003°29'310.4
2017-Jun-26 15:26N 39°58' E 003°33'1310.3
2017-Jun-26 14:09N 39°58' E 003°50'0 0.0
2017-Jun-26 13:22N 39°58' E 003°50'0 0.0
2017-Jun-26 11:51N 39°58' E 003°50'0 0.1
2017-Jun-26 11:26N 39°58' E 003°50'  
2017-Jun-23 12:55N 39°40' E 003°52'910.5
2017-Jun-23 12:01N 39°36' E 003°41'510.8
2017-Jun-23 11:32N 39°34' E 003°35'010.6
2017-Jun-23 11:31N 39°33' E 003°35'510.7
2017-Jun-23 11:00N 39°31' E 003°28'510.5
2017-Jun-23 10:30N 39°29' E 003°22'510.2
2017-Jun-23 09:59N 39°25' E 003°17'510.6
2017-Jun-23 09:30N 39°21' E 003°14'510.2
2017-Jun-23 09:00N 39°18' E 003°08'510.0
2017-Jun-23 08:30N 39°16' E 003°03'510.6
2017-Jun-23 08:00N 39°18' E 002°57'510.5
2017-Jun-23 07:30N 39°20' E 002°51'510.3
2017-Jun-23 07:00N 39°23' E 002°45'510.4
2017-Jun-23 06:30N 39°27' E 002°42'510.3
2017-Jun-23 06:00N 39°32' E 002°39'2 4.0
2017-Jun-23 05:30N 39°34' E 002°38'0 0.0
2017-Jun-23 05:00N 39°34' E 002°38'0 0.0
2017-Jun-23 04:30N 39°34' E 002°38'0 0.0
2017-Jun-23 04:00N 39°34' E 002°38'0 0.0
2017-Jun-23 03:30N 39°34' E 002°38'0 0.0
2017-Jun-23 03:00N 39°34' E 002°38'0 0.0
2017-Jun-23 02:24N 39°34' E 002°38'0 0.0
2017-Jun-23 02:00N 39°34' E 002°38'0 0.0
2017-Jun-23 01:30N 39°34' E 002°38'0 0.0
2017-Jun-23 01:00N 39°34' E 002°38'0 0.0
2017-Jun-23 00:30N 39°34' E 002°38'0 0.1
2017-Jun-23 00:00N 39°34' E 002°38'0 0.1
2017-Jun-22 23:30N 39°34' E 002°38'0 0.0
2017-Jun-22 23:00N 39°34' E 002°38'0 0.0
2017-Jun-22 22:30N 39°34' E 002°38'0 0.0
2017-Jun-22 21:54N 39°34' E 002°38'0 0.0
2017-Jun-22 21:30N 39°34' E 002°38'0 0.0
2017-Jun-22 20:57N 39°34' E 002°38'0 0.0
2017-Jun-22 20:27N 39°34' E 002°38'0 0.0
2017-Jun-22 20:00N 39°34' E 002°38'0 0.0
2017-Jun-22 19:30N 39°34' E 002°38'0 0.0
2017-Jun-22 19:00N 39°34' E 002°38'0 0.0
2017-Jun-22 18:30N 39°34' E 002°38'0 0.0
2017-Jun-22 18:00N 39°34' E 002°38'0 0.0
2017-Jun-22 17:30N 39°34' E 002°38'0 0.0
2017-Jun-22 17:00N 39°34' E 002°38'0 0.0
2017-Jun-22 16:30N 39°34' E 002°38'0 0.0
2017-Jun-22 16:00N 39°34' E 002°38'0 0.0
2017-Jun-22 15:30N 39°34' E 002°38'0 0.0
2017-Jun-22 15:00N 39°34' E 002°38'0 0.0
2017-Jun-22 14:00N 39°34' E 002°38'0 0.0
2017-Jun-22 13:30N 39°34' E 002°38'0 0.0
2017-Jun-22 13:00N 39°34' E 002°38'0 0.0
2017-Jun-22 12:30N 39°34' E 002°38'0 0.0
2017-Jun-22 12:00N 39°34' E 002°38'0 0.0
2017-Jun-22 11:30N 39°34' E 002°38'0 0.0
2017-Jun-22 11:00N 39°34' E 002°38'0 0.0
2017-Jun-22 10:30N 39°34' E 002°38'0 0.0
2017-Jun-22 10:00N 39°34' E 002°38'0 0.0
2017-Jun-22 09:30N 39°34' E 002°38'0 0.0
2017-Jun-22 09:00N 39°34' E 002°38'0 0.0
2017-Jun-22 08:30N 39°34' E 002°38'0 0.0
2017-Jun-22 08:00N 39°34' E 002°38'0 0.0
2017-Jun-22 07:27N 39°34' E 002°38'0 0.0
2017-Jun-22 07:00N 39°34' E 002°38'0 0.0
2017-Jun-22 06:30N 39°34' E 002°38'0 0.0
2017-Jun-22 06:00N 39°34' E 002°38'0 0.0
2017-Jun-22 05:30N 39°34' E 002°38'0 0.0
2017-Jun-22 05:00N 39°34' E 002°38'0 0.0
2017-Jun-22 04:30N 39°34' E 002°38'0 0.0
2017-Jun-22 04:00N 39°34' E 002°38'0 0.0
2017-Jun-22 03:30N 39°34' E 002°38'0 0.0
2017-Jun-22 03:00N 39°34' E 002°38'0 0.0
2017-Jun-22 02:30N 39°34' E 002°38'0 0.0
2017-Jun-22 01:57N 39°34' E 002°38'0 0.0
2017-Jun-22 01:30N 39°34' E 002°38'0 0.0
2017-Jun-22 00:57N 39°34' E 002°38'0 0.0
2017-Jun-22 00:30N 39°34' E 002°38'0 0.0
2017-Jun-22 00:00N 39°34' E 002°38'0 0.0
2017-Jun-21 23:30N 39°34' E 002°38'0 0.0
2017-Jun-21 23:00N 39°34' E 002°38'0 0.0
2017-Jun-21 22:30N 39°34' E 002°38'0 0.0
2017-Jun-21 22:00N 39°34' E 002°38'0 0.0
2017-Jun-21 21:30N 39°34' E 002°38'0 0.0
2017-Jun-21 21:00N 39°34' E 002°38'0 0.0
2017-Jun-21 20:30N 39°34' E 002°38'0 0.0
2017-Jun-21 20:00N 39°34' E 002°38'0 0.0
2017-Jun-21 19:30N 39°34' E 002°38'0 0.0
2017-Jun-21 19:00N 39°34' E 002°38'0 0.0
2017-Jun-21 18:30N 39°34' E 002°38'0 0.0
2017-Jun-21 18:00N 39°34' E 002°38'0 0.0
2017-Jun-21 17:30N 39°34' E 002°38'0 0.0
2017-Jun-21 17:00N 39°34' E 002°38'0 0.0
2017-Jun-21 16:30N 39°34' E 002°38'0 0.0
2017-Jun-21 16:00N 39°34' E 002°38'0 0.0
2017-Jun-21 15:30N 39°34' E 002°38'0 0.0
2017-Jun-21 15:00N 39°34' E 002°38'2 4.1
2017-Jun-21 14:30N 39°32' E 002°37'2 2.0
2017-Jun-21 13:30N 39°34' E 002°38'0 0.0
2017-Jun-21 13:00N 39°34' E 002°38'0 0.0
2017-Jun-21 12:30N 39°34' E 002°38'0 0.0
2017-Jun-21 11:57N 39°34' E 002°38'0 0.0
2017-Jun-21 11:30N 39°34' E 002°38'0 0.0
2017-Jun-21 11:00N 39°34' E 002°38'0 0.0
2017-Jun-21 10:30N 39°34' E 002°38'0 0.0
2017-Jun-21 10:00N 39°34' E 002°38'0 0.0
2017-Jun-21 09:30N 39°34' E 002°38'0 0.0
2017-Jun-21 09:00N 39°34' E 002°38'0 0.0
2017-Jun-21 08:27N 39°34' E 002°38'0 0.0
2017-Jun-21 08:00N 39°34' E 002°38'0 0.0
2017-Jun-21 07:30N 39°34' E 002°38'0 0.0
2017-Jun-21 07:00N 39°34' E 002°38'0 0.0
2017-Jun-21 06:30N 39°34' E 002°38'0 0.0
2017-Jun-21 06:00N 39°34' E 002°38'0 0.0
2017-Jun-21 05:24N 39°34' E 002°38'0 0.0
2017-Jun-21 05:00N 39°34' E 002°38'0 0.0
2017-Jun-21 04:27N 39°34' E 002°38'0 0.0
2017-Jun-21 04:00N 39°34' E 002°38'0 0.0
2017-Jun-21 03:30N 39°34' E 002°38'0 0.0
2017-Jun-21 03:00N 39°34' E 002°38'0 0.0
2017-Jun-21 02:27N 39°34' E 002°38'0 0.0
2017-Jun-21 02:00N 39°34' E 002°38'0 0.0
2017-Jun-21 01:30N 39°34' E 002°38'0 0.0
2017-Jun-21 01:00N 39°34' E 002°38'0 0.0
2017-Jun-21 00:24N 39°34' E 002°38'0 0.0
2017-Jun-21 00:00N 39°34' E 002°38'0 0.0
2017-Jun-20 23:30N 39°34' E 002°38'0 0.0
2017-Jun-20 23:00N 39°34' E 002°38'0 0.0
2017-Jun-20 22:30N 39°34' E 002°38'0 0.0
2017-Jun-20 22:00N 39°34' E 002°38'0 0.0
2017-Jun-20 21:30N 39°34' E 002°38'0 0.0
2017-Jun-20 21:00N 39°34' E 002°38'0 0.0
2017-Jun-20 20:30N 39°34' E 002°38'0 0.0
2017-Jun-20 20:00N 39°34' E 002°38'0 0.0
2017-Jun-20 19:30N 39°34' E 002°38'0 0.0
2017-Jun-20 19:00N 39°34' E 002°38'0 0.0
2017-Jun-20 18:30N 39°34' E 002°38'0 0.0
2017-Jun-20 18:00N 39°34' E 002°38'0 0.0
2017-Jun-20 17:30N 39°34' E 002°38'0 0.0
2017-Jun-20 17:00N 39°34' E 002°38'0 0.0
2017-Jun-20 16:30N 39°34' E 002°38'0 0.0
2017-Jun-20 16:00N 39°34' E 002°38'0 0.0
2017-Jun-20 15:30N 39°34' E 002°38'0 0.0
2017-Jun-20 15:00N 39°34' E 002°38'0 0.0
2017-Jun-20 14:30N 39°34' E 002°38'0 0.0
2017-Jun-20 13:30N 39°34' E 002°38'0 0.0
2017-Jun-20 13:00N 39°34' E 002°38'0 0.0
2017-Jun-20 12:30N 39°34' E 002°38'0 0.0
2017-Jun-20 12:00N 39°34' E 002°38'0 0.0
2017-Jun-20 11:30N 39°34' E 002°38'0 0.0
2017-Jun-20 11:00N 39°34' E 002°38'0 0.0
2017-Jun-20 10:30N 39°34' E 002°38'0 0.0
2017-Jun-20 10:00N 39°34' E 002°38'0 0.0
2017-Jun-20 09:30N 39°34' E 002°38'0 0.0
2017-Jun-20 09:00N 39°34' E 002°38'0 0.0
2017-Jun-20 08:30N 39°34' E 002°38'0 0.0
2017-Jun-20 08:00N 39°34' E 002°38'0 0.0
2017-Jun-20 07:30N 39°34' E 002°38'0 0.0
2017-Jun-20 07:00N 39°34' E 002°38'0 0.0
2017-Jun-20 06:30N 39°34' E 002°38'0 0.0
2017-Jun-20 06:00N 39°34' E 002°38'0 0.0
2017-Jun-20 05:30N 39°34' E 002°38'0 0.0
2017-Jun-20 05:00N 39°34' E 002°38'0 0.0
2017-Jun-20 04:30N 39°34' E 002°38'0 0.0
2017-Jun-20 04:00N 39°34' E 002°38'0 0.0
2017-Jun-20 03:30N 39°34' E 002°38'0 0.0
2017-Jun-20 02:57N 39°34' E 002°38'0 0.0
2017-Jun-20 02:30N 39°34' E 002°38'0 0.0
2017-Jun-20 02:00N 39°34' E 002°38'0 0.0
2017-Jun-20 01:30N 39°34' E 002°38'0 0.0
2017-Jun-20 01:00N 39°34' E 002°38'0 0.0
2017-Jun-20 00:30N 39°34' E 002°38'0 0.0
2017-Jun-20 00:00N 39°34' E 002°38'0 0.0
2017-Jun-19 23:30N 39°34' E 002°38'0 0.0
2017-Jun-19 23:00N 39°34' E 002°38'0 0.0
2017-Jun-19 22:30N 39°34' E 002°38'0 0.0
2017-Jun-19 22:00N 39°34' E 002°38'0 0.0
2017-Jun-19 21:30N 39°34' E 002°38'0 0.0
2017-Jun-19 21:00N 39°34' E 002°38'0 0.0
2017-Jun-19 20:30N 39°34' E 002°38'0 0.0
2017-Jun-19 20:00N 39°34' E 002°38'0 0.0
2017-Jun-19 19:30N 39°34' E 002°38'0 0.0
2017-Jun-19 19:00N 39°34' E 002°38'0 0.0
2017-Jun-19 18:30N 39°34' E 002°38'0 0.0
2017-Jun-19 18:00N 39°34' E 002°38'0 0.0
2017-Jun-19 17:30N 39°34' E 002°38'0 0.0
2017-Jun-19 17:00N 39°34' E 002°38'0 0.0
2017-Jun-19 16:30N 39°34' E 002°38'0 0.0
2017-Jun-19 16:00N 39°34' E 002°38'0 0.0
2017-Jun-19 15:27N 39°34' E 002°38'0 0.0
2017-Jun-19 15:00N 39°34' E 002°38'0 0.0
2017-Jun-19 14:30N 39°34' E 002°38'0 0.0
2017-Jun-19 13:30N 39°34' E 002°38'0 0.0
2017-Jun-19 13:00N 39°34' E 002°38'0 0.0
2017-Jun-19 12:30N 39°34' E 002°38'0 0.0
2017-Jun-19 12:00N 39°34' E 002°38'0 0.0
2017-Jun-19 11:30N 39°34' E 002°38'0 0.0
2017-Jun-19 11:00N 39°34' E 002°38'0 0.0
2017-Jun-19 10:27N 39°34' E 002°38'0 0.0
2017-Jun-19 10:00N 39°34' E 002°38'0 0.0
2017-Jun-19 09:30N 39°34' E 002°38'0 0.0
2017-Jun-19 09:00N 39°34' E 002°38'0 0.0
2017-Jun-19 08:30N 39°34' E 002°38'1 3.0
2017-Jun-19 08:00N 39°33' E 002°38'510.2
2017-Jun-19 07:30N 39°29' E 002°33'1 2.5
2017-Jun-19 06:58N 39°28' E 002°32'0 0.0
2017-Jun-19 06:25N 39°28' E 002°32'0 0.0
2017-Jun-19 05:58N 39°28' E 002°32'0 0.0
2017-Jun-19 05:28N 39°28' E 002°32'0 0.0
2017-Jun-19 04:58N 39°28' E 002°32'0 0.0
2017-Jun-19 04:29N 39°28' E 002°32'0 0.0
2017-Jun-19 03:58N 39°28' E 002°32'0 0.0
2017-Jun-19 03:28N 39°28' E 002°32'0 0.0
2017-Jun-19 02:58N 39°28' E 002°32'0 0.0
2017-Jun-19 02:28N 39°28' E 002°32'0 0.0
2017-Jun-19 01:58N 39°28' E 002°32'0 0.0
2017-Jun-19 01:25N 39°28' E 002°32'0 0.0
2017-Jun-19 00:58N 39°28' E 002°32'0 0.0
2017-Jun-19 00:28N 39°28' E 002°32'0 0.0
2017-Jun-18 23:55N 39°28' E 002°32'0 0.0
2017-Jun-18 23:25N 39°28' E 002°32'0 0.0
2017-Jun-18 22:58N 39°28' E 002°32'0 0.0
2017-Jun-18 22:28N 39°28' E 002°32'0 0.0
2017-Jun-18 21:58N 39°28' E 002°32'0 0.0
2017-Jun-18 21:28N 39°28' E 002°32'0 0.0
2017-Jun-18 20:55N 39°28' E 002°32'0 0.0
2017-Jun-18 20:25N 39°28' E 002°32'0 0.0
2017-Jun-18 19:58N 39°28' E 002°32'0 0.0
2017-Jun-18 19:25N 39°28' E 002°32'0 0.0
2017-Jun-18 18:58N 39°28' E 002°32'0 0.0
2017-Jun-18 18:28N 39°28' E 002°32'0 0.0
2017-Jun-18 17:58N 39°28' E 002°32'0 0.0
2017-Jun-18 17:28N 39°28' E 002°32'0 0.0
2017-Jun-18 16:58N 39°28' E 002°32'0 0.0
2017-Jun-18 16:28N 39°28' E 002°32'0 0.0
2017-Jun-18 15:58N 39°28' E 002°32'0 0.0
2017-Jun-18 15:30N 39°28' E 002°32'1 1.6
2017-Jun-18 15:00N 39°28' E 002°32'10 9.9
2017-Jun-18 14:00N 39°20' E 002°23'  

Dump ship's entire track history